Time;durP1;ratioP1;P1;durP2;ratioP2;P2;SDS_P1;SDS_P2;PMS_P1;PMS_P2;Temp;Humidity;BMP_temperature;BMP_pressure;BME280_temperature;BME280_humidity;BME280_pressure;Samples;Min_cycle;Max_cycle;Signal;HPM_P1;HPM_P2
2023/07/13 00:01:40;;;;;;;;;;;24.10;64.10;;;;;;8296218;28;19909;-76
2023/07/13 00:05:41;;;;;;;;;;;24.10;64.20;;;;;;8277661;28;19909;-75
2023/07/13 00:09:41;;;;;;;;;;;24.00;64.20;;;;;;8295737;28;19936;-76
2023/07/13 00:13:42;;;;;;;;;;;24.00;64.10;;;;;;8295848;28;19913;-76
2023/07/13 00:17:47;;;;;;;;;;;24.00;64.20;;;;;;8278179;28;20001;-75
2023/07/13 00:21:47;;;;;;;;;;;24.00;64.20;;;;;;8296074;28;19921;-76
2023/07/13 00:25:50;;;;;;;;;;;24.00;64.20;;;;;;8307342;28;19915;-75
2023/07/13 00:29:51;;;;;;;;;;;23.90;64.10;;;;;;8310690;28;19920;-75
2023/07/13 00:33:51;;;;;;;;;;;24.00;64.10;;;;;;8310180;28;20433;-76
2023/07/13 00:37:52;;;;;;;;;;;24.00;64.10;;;;;;8310305;28;19931;-75
2023/07/13 00:41:52;;;;;;;;;;;23.90;64.00;;;;;;8310024;28;19909;-75
2023/07/13 00:45:53;;;;;;;;;;;24.00;64.10;;;;;;8293727;28;19944;-76
2023/07/13 00:49:53;;;;;;;;;;;23.90;64.10;;;;;;8310158;28;20393;-76
2023/07/13 00:53:56;;;;;;;;;;;23.90;64.00;;;;;;8326269;28;19943;-75
2023/07/13 00:57:56;;;;;;;;;;;23.90;64.10;;;;;;8327323;28;19916;-75
2023/07/13 01:01:57;;;;;;;;;;;23.90;64.00;;;;;;8327397;28;19952;-75
2023/07/13 01:05:57;;;;;;;;;;;23.90;64.10;;;;;;8327202;28;20370;-75
2023/07/13 01:09:58;;;;;;;;;;;23.90;64.10;;;;;;8309435;28;20245;-75
2023/07/13 01:13:59;;;;;;;;;;;23.90;64.00;;;;;;8328284;28;20405;-75
2023/07/13 01:17:59;;;;;;;;;;;23.90;64.00;;;;;;8333970;28;19909;-75
2023/07/13 01:22:00;;;;;;;;;;;23.90;64.10;;;;;;8315826;28;20370;-75
2023/07/13 01:26:01;;;;;;;;;;;23.90;64.10;;;;;;8333597;28;19909;-75
2023/07/13 01:30:03;;;;;;;;;;;23.80;64.10;;;;;;8333298;28;20401;-76
2023/07/13 01:34:04;;;;;;;;;;;23.90;64.20;;;;;;8315738;28;19909;-75
2023/07/13 01:38:05;;;;;;;;;;;23.80;64.10;;;;;;8333318;28;19913;-75
2023/07/13 01:42:06;;;;;;;;;;;23.90;64.10;;;;;;8315329;28;19952;-75
2023/07/13 01:46:06;;;;;;;;;;;23.90;64.10;;;;;;8315516;28;19913;-75
2023/07/13 01:50:07;;;;;;;;;;;23.80;64.00;;;;;;8332842;28;19917;-75
2023/07/13 01:54:07;;;;;;;;;;;23.90;64.10;;;;;;8332786;28;20003;-76
2023/07/13 01:58:08;;;;;;;;;;;23.80;64.00;;;;;;8314721;28;20255;-75
2023/07/13 02:02:08;;;;;;;;;;;23.80;64.00;;;;;;8332382;28;19936;-75
2023/07/13 02:06:09;;;;;;;;;;;23.90;64.10;;;;;;8314323;28;19909;-75
2023/07/13 02:10:13;;;;;;;;;;;23.80;64.00;;;;;;8314504;28;19948;-75
2023/07/13 02:14:15;;;;;;;;;;;23.80;64.00;;;;;;8314097;28;19921;-75
2023/07/13 02:18:16;;;;;;;;;;;23.80;64.00;;;;;;8314231;28;19909;-75
2023/07/13 02:22:17;;;;;;;;;;;23.90;64.00;;;;;;8298004;28;19909;-75
2023/07/13 02:26:18;;;;;;;;;;;23.80;64.00;;;;;;8330806;28;19979;-75
2023/07/13 02:30:18;;;;;;;;;;;23.80;64.00;;;;;;8314103;28;20288;-75
2023/07/13 02:34:19;;;;;;;;;;;23.80;64.00;;;;;;8313789;28;19958;-75
2023/07/13 02:38:20;;;;;;;;;;;23.80;64.00;;;;;;8313559;28;19940;-76
2023/07/13 02:42:20;;;;;;;;;;;23.80;64.00;;;;;;8314052;28;19996;-75
2023/07/13 02:46:21;;;;;;;;;;;23.80;64.10;;;;;;8331319;28;19913;-75
2023/07/13 02:50:22;;;;;;;;;;;23.80;64.10;;;;;;8329582;28;19963;-75
2023/07/13 02:54:22;;;;;;;;;;;23.80;64.00;;;;;;8331352;28;19944;-75
2023/07/13 02:58:23;;;;;;;;;;;23.80;64.00;;;;;;8330488;28;20362;-75
2023/07/13 03:02:23;;;;;;;;;;;23.80;64.10;;;;;;8330780;28;19996;-75
2023/07/13 03:06:24;;;;;;;;;;;23.80;64.00;;;;;;8330958;28;20073;-75
2023/07/13 03:10:25;;;;;;;;;;;23.80;64.00;;;;;;8330391;28;19909;-75
2023/07/13 03:14:25;;;;;;;;;;;23.80;64.00;;;;;;8330753;28;19917;-75
2023/07/13 03:18:27;;;;;;;;;;;23.80;64.00;;;;;;8313233;28;20322;-75
2023/07/13 03:22:28;;;;;;;;;;;23.80;64.00;;;;;;8328878;28;19949;-75
2023/07/13 03:26:28;;;;;;;;;;;23.80;64.00;;;;;;8295854;28;19909;-75
2023/07/13 03:30:29;;;;;;;;;;;23.80;64.00;;;;;;8297369;28;19913;-75
2023/07/13 03:34:29;;;;;;;;;;;23.80;64.00;;;;;;8297103;28;20362;-75
2023/07/13 03:38:30;;;;;;;;;;;23.80;64.00;;;;;;8295896;28;19909;-75
2023/07/13 03:42:30;;;;;;;;;;;23.80;63.90;;;;;;8279423;28;19945;-75
2023/07/13 03:46:31;;;;;;;;;;;23.80;64.00;;;;;;8311954;28;19996;-75
2023/07/13 03:50:32;;;;;;;;;;;23.80;64.00;;;;;;8312481;28;19913;-76
2023/07/13 03:54:32;;;;;;;;;;;23.80;64.00;;;;;;8298966;28;19909;-76
2023/07/13 03:58:34;;;;;;;;;;;23.70;63.90;;;;;;8328722;28;19996;-75
2023/07/13 04:02:35;;;;;;;;;;;23.70;64.00;;;;;;8330732;28;19913;-75
2023/07/13 04:06:36;;;;;;;;;;;23.70;64.00;;;;;;8330215;28;19908;-75
2023/07/13 04:10:38;;;;;;;;;;;23.70;64.00;;;;;;8330609;28;19963;-75
2023/07/13 04:14:39;;;;;;;;;;;23.70;64.00;;;;;;8313197;28;19944;-75
2023/07/13 04:18:39;;;;;;;;;;;23.70;63.90;;;;;;8330190;28;19956;-74
2023/07/13 04:22:40;;;;;;;;;;;23.70;63.90;;;;;;8330150;28;19916;-75
2023/07/13 04:26:40;;;;;;;;;;;23.70;63.90;;;;;;8312895;28;19909;-75
2023/07/13 04:30:41;;;;;;;;;;;23.80;63.90;;;;;;8329952;28;20404;-76
2023/07/13 04:34:41;;;;;;;;;;;23.70;63.90;;;;;;8331934;28;19909;-75
2023/07/13 04:38:42;;;;;;;;;;;23.70;63.90;;;;;;8314312;28;19915;-76
2023/07/13 04:42:43;;;;;;;;;;;23.70;63.90;;;;;;8334245;28;19915;-76
2023/07/13 04:46:43;;;;;;;;;;;23.80;63.90;;;;;;8332480;28;19911;-75
2023/07/13 04:50:45;;;;;;;;;;;23.70;63.90;;;;;;8311904;28;20267;-75
2023/07/13 04:54:45;;;;;;;;;;;23.70;63.80;;;;;;8309714;28;20293;-76
2023/07/13 04:58:46;;;;;;;;;;;23.70;63.90;;;;;;8293776;28;19945;-75
2023/07/13 05:02:46;;;;;;;;;;;23.80;63.90;;;;;;8293764;28;19913;-75
2023/07/13 05:06:47;;;;;;;;;;;23.70;63.90;;;;;;8327489;28;20406;-75
2023/07/13 05:10:47;;;;;;;;;;;23.70;63.90;;;;;;8293708;28;20337;-75
2023/07/13 05:14:49;;;;;;;;;;;23.70;64.00;;;;;;8309528;28;20410;-75
2023/07/13 05:18:49;;;;;;;;;;;23.70;63.90;;;;;;8309887;28;19909;-75
2023/07/13 05:22:50;;;;;;;;;;;23.70;64.00;;;;;;8327249;28;19955;-75
2023/07/13 05:26:51;;;;;;;;;;;23.70;64.00;;;;;;8290335;28;19916;-75
2023/07/13 05:30:51;;;;;;;;;;;23.70;63.90;;;;;;8310764;28;19920;-75
2023/07/13 05:34:52;;;;;;;;;;;23.70;63.90;;;;;;8295225;28;19956;-75
2023/07/13 05:38:53;;;;;;;;;;;23.70;63.90;;;;;;8295251;28;19916;-75
2023/07/13 05:42:53;;;;;;;;;;;23.70;63.80;;;;;;8277187;28;19913;-75
2023/07/13 05:46:55;;;;;;;;;;;23.70;63.90;;;;;;8294397;28;19915;-75
2023/07/13 05:50:56;;;;;;;;;;;23.70;63.90;;;;;;8276399;28;19910;-75
2023/07/13 05:54:56;;;;;;;;;;;23.70;63.80;;;;;;8280963;28;19942;-75
2023/07/13 05:58:57;;;;;;;;;;;23.70;63.90;;;;;;8327078;28;19952;-75
2023/07/13 06:02:58;;;;;;;;;;;23.70;63.90;;;;;;8312689;28;19913;-75
2023/07/13 06:07:00;;;;;;;;;;;23.70;63.90;;;;;;8332447;28;19905;-75
2023/07/13 06:11:09;;;;;;;;;;;23.70;63.90;;;;;;8298783;28;19913;-75
2023/07/13 06:15:10;;;;;;;;;;;23.70;63.80;;;;;;8314607;28;19917;-75
2023/07/13 06:19:10;;;;;;;;;;;23.70;63.80;;;;;;8298041;28;19996;-76
2023/07/13 06:23:11;;;;;;;;;;;23.70;63.90;;;;;;8332275;28;19909;-75
2023/07/13 06:27:11;;;;;;;;;;;23.70;63.90;;;;;;8313984;28;20124;-75
2023/07/13 06:31:12;;;;;;;;;;;23.70;63.90;;;;;;8331618;28;19920;-75
2023/07/13 06:35:13;;;;;;;;;;;23.70;63.90;;;;;;8313883;28;19909;-75
2023/07/13 06:39:13;;;;;;;;;;;23.70;63.90;;;;;;8297224;28;19966;-75
2023/07/13 06:43:14;;;;;;;;;;;23.70;63.90;;;;;;8313754;28;19931;-75
2023/07/13 06:47:14;;;;;;;;;;;23.70;63.90;;;;;;8331879;28;19909;-75
2023/07/13 06:51:15;;;;;;;;;;;23.70;63.90;;;;;;8331165;28;19913;-75
2023/07/13 06:55:16;;;;;;;;;;;23.70;63.80;;;;;;8331093;28;19912;-75
2023/07/13 06:59:16;;;;;;;;;;;23.70;63.80;;;;;;8331041;28;19909;-75
2023/07/13 07:03:17;;;;;;;;;;;23.70;63.80;;;;;;8330823;28;20382;-75
2023/07/13 07:07:17;;;;;;;;;;;23.70;63.90;;;;;;8313547;28;19935;-75
2023/07/13 07:11:19;;;;;;;;;;;23.70;63.80;;;;;;8313159;28;20003;-75
2023/07/13 07:15:19;;;;;;;;;;;23.70;63.80;;;;;;8296546;28;19924;-75
2023/07/13 07:19:20;;;;;;;;;;;23.70;63.80;;;;;;8298162;28;19916;-75
2023/07/13 07:23:20;;;;;;;;;;;23.70;63.80;;;;;;8297363;28;19909;-75
2023/07/13 07:27:21;;;;;;;;;;;23.70;63.80;;;;;;8297528;28;19910;-75
2023/07/13 07:31:22;;;;;;;;;;;23.70;63.70;;;;;;8296006;28;20383;-75
2023/07/13 07:35:22;;;;;;;;;;;23.70;63.80;;;;;;8279458;28;19998;-75
2023/07/13 07:39:23;;;;;;;;;;;23.70;63.70;;;;;;8295707;28;20000;-75
2023/07/13 07:43:23;;;;;;;;;;;23.70;63.80;;;;;;8279293;28;19916;-76
2023/07/13 07:47:24;;;;;;;;;;;23.70;63.80;;;;;;8263034;28;19921;-75
2023/07/13 07:51:26;;;;;;;;;;;23.70;63.90;;;;;;8296566;28;20055;-75
2023/07/13 07:55:26;;;;;;;;;;;23.70;63.90;;;;;;8279031;28;19909;-75
2023/07/13 07:59:27;;;;;;;;;;;23.70;63.80;;;;;;8295070;28;19910;-75
2023/07/13 08:03:27;;;;;;;;;;;23.70;63.80;;;;;;8296445;28;19995;-75
2023/07/13 08:07:29;;;;;;;;;;;23.70;63.80;;;;;;8296155;28;20435;-75
2023/07/13 08:11:30;;;;;;;;;;;23.70;63.80;;;;;;8296332;28;19909;-75
2023/07/13 08:15:30;;;;;;;;;;;23.70;63.70;;;;;;8311066;28;19921;-75
2023/07/13 08:19:31;;;;;;;;;;;23.70;63.80;;;;;;8328655;28;19909;-75
2023/07/13 08:23:32;;;;;;;;;;;23.70;63.70;;;;;;8310304;28;19909;-76
2023/07/13 08:27:32;;;;;;;;;;;23.70;63.60;;;;;;8328779;28;19905;-75
2023/07/13 08:31:33;;;;;;;;;;;23.70;63.70;;;;;;8328197;28;20624;-75
2023/07/13 08:35:33;;;;;;;;;;;23.70;63.70;;;;;;8328207;28;19916;-75
2023/07/13 08:39:34;;;;;;;;;;;23.70;63.70;;;;;;8326807;28;20358;-75
2023/07/13 08:43:36;;;;;;;;;;;23.70;63.70;;;;;;8326781;28;19909;-75
2023/07/13 08:47:39;;;;;;;;;;;23.70;63.70;;;;;;8327941;28;19963;-76
2023/07/13 08:51:49;;;;;;;;;;;23.70;63.70;;;;;;8327695;28;20484;-75
2023/07/13 08:55:52;;;;;;;;;;;23.70;63.70;;;;;;8326680;28;20417;-75
2023/07/13 08:59:54;;;;;;;;;;;23.70;63.70;;;;;;8327373;28;19905;-75
2023/07/13 09:04:01;;;;;;;;;;;23.70;63.70;;;;;;8309731;28;20362;-75
2023/07/13 09:08:25;;;;;;;;;;;23.70;63.80;;;;;;8327338;28;19905;-75
2023/07/13 09:12:44;;;;;;;;;;;23.70;63.70;;;;;;8298947;28;20350;-75
2023/07/13 09:16:46;;;;;;;;;;;23.70;63.70;;;;;;8326991;28;20229;-75
2023/07/13 09:21:19;;;;;;;;;;;23.70;63.70;;;;;;8309129;28;20396;-75
2023/07/13 09:25:30;;;;;;;;;;;23.70;63.70;;;;;;8282870;28;20358;-75
2023/07/13 09:29:34;;;;;;;;;;;23.70;63.70;;;;;;8309348;28;19963;-75
2023/07/13 09:33:35;;;;;;;;;;;23.70;63.70;;;;;;8327292;28;19913;-75
2023/07/13 09:37:35;;;;;;;;;;;23.70;63.60;;;;;;8331400;28;19936;-75
2023/07/13 09:41:54;;;;;;;;;;;23.70;63.60;;;;;;8333579;28;19909;-75
2023/07/13 09:45:55;;;;;;;;;;;23.70;63.60;;;;;;8333316;28;19949;-75
2023/07/13 09:49:55;;;;;;;;;;;23.70;63.60;;;;;;8333289;28;19909;-75
2023/07/13 09:53:57;;;;;;;;;;;23.70;63.50;;;;;;8333066;28;20037;-75
2023/07/13 09:57:57;;;;;;;;;;;23.70;63.60;;;;;;8333229;28;20020;-75
2023/07/13 10:01:58;;;;;;;;;;;23.70;63.50;;;;;;8332981;28;19920;-75
2023/07/13 10:06:04;;;;;;;;;;;23.70;63.60;;;;;;8332470;28;19916;-75
2023/07/13 10:10:13;;;;;;;;;;;23.70;63.50;;;;;;8314674;28;19908;-75
2023/07/13 10:14:15;;;;;;;;;;;23.70;63.60;;;;;;8314721;28;20349;-76
2023/07/13 10:18:16;;;;;;;;;;;23.70;63.60;;;;;;8332304;28;19912;-75
2023/07/13 10:22:20;;;;;;;;;;;23.70;63.50;;;;;;8332265;28;19909;-75
2023/07/13 10:26:23;;;;;;;;;;;23.70;63.60;;;;;;8331988;28;19955;-75
2023/07/13 10:30:28;;;;;;;;;;;23.70;63.60;;;;;;8314022;28;19913;-75
2023/07/13 10:34:28;;;;;;;;;;;23.70;63.50;;;;;;8332194;28;19909;-75
2023/07/13 10:38:29;;;;;;;;;;;23.70;63.40;;;;;;8298099;28;20429;-75
2023/07/13 10:42:30;;;;;;;;;;;23.70;63.40;;;;;;8331776;28;19959;-75
2023/07/13 10:46:30;;;;;;;;;;;23.70;63.40;;;;;;8331037;28;19912;-75
2023/07/13 10:50:31;;;;;;;;;;;23.70;63.40;;;;;;8331155;28;20020;-75
2023/07/13 10:54:32;;;;;;;;;;;23.70;64.20;;;;;;8331077;28;19979;-75
2023/07/13 10:58:35;;;;;;;;;;;23.70;63.30;;;;;;8331405;28;19951;-76
2023/07/13 11:02:35;;;;;;;;;;;23.70;63.30;;;;;;8330876;28;19905;-75
2023/07/13 11:06:45;;;;;;;;;;;23.70;63.30;;;;;;8313111;28;19910;-74
2023/07/13 11:10:49;;;;;;;;;;;23.70;63.30;;;;;;8331005;28;20008;-75
2023/07/13 11:14:56;;;;;;;;;;;23.70;63.30;;;;;;8330354;28;20465;-76
2023/07/13 11:19:02;;;;;;;;;;;23.70;63.30;;;;;;8330532;28;20282;-74
2023/07/13 11:23:17;;;;;;;;;;;23.70;63.30;;;;;;8330310;28;19917;-75
2023/07/13 11:27:22;;;;;;;;;;;23.70;63.20;;;;;;8329772;28;20128;-75
2023/07/13 11:31:23;;;;;;;;;;;23.70;63.20;;;;;;8330244;28;19916;-75
2023/07/13 11:35:25;;;;;;;;;;;23.70;63.30;;;;;;8295730;28;19909;-75
2023/07/13 11:39:30;;;;;;;;;;;23.70;63.30;;;;;;8329627;28;19905;-75
2023/07/13 11:43:30;;;;;;;;;;;23.70;63.30;;;;;;8328593;28;19905;-76
2023/07/13 11:47:31;;;;;;;;;;;23.70;63.30;;;;;;8311836;28;19947;-76
2023/07/13 11:51:33;;;;;;;;;;;23.70;63.20;;;;;;8312031;28;19913;-75
2023/07/13 11:55:37;;;;;;;;;;;23.70;63.20;;;;;;8312118;28;19912;-75
2023/07/13 11:59:39;;;;;;;;;;;23.70;63.10;;;;;;8329655;28;20354;-74
2023/07/13 12:03:40;;;;;;;;;;;23.70;63.10;;;;;;8330747;28;19905;-75
2023/07/13 12:07:40;;;;;;;;;;;23.70;63.10;;;;;;8329110;28;20385;-75
2023/07/13 12:11:42;;;;;;;;;;;23.70;63.10;;;;;;8295882;28;19913;-75
2023/07/13 12:15:46;;;;;;;;;;;23.80;63.20;;;;;;8296288;28;20398;-75
2023/07/13 12:19:50;;;;;;;;;;;23.80;63.10;;;;;;8295964;28;20011;-76
2023/07/13 12:23:51;;;;;;;;;;;23.70;63.10;;;;;;8297390;28;19905;-75
2023/07/13 12:27:51;;;;;;;;;;;23.70;63.10;;;;;;8297640;28;19940;-75
2023/07/13 12:31:52;;;;;;;;;;;23.70;63.00;;;;;;8297435;28;19964;-76
2023/07/13 12:35:53;;;;;;;;;;;23.70;63.10;;;;;;8280241;28;19906;-75
2023/07/13 12:39:53;;;;;;;;;;;23.70;63.00;;;;;;8300789;28;20271;-76
2023/07/13 12:43:54;;;;;;;;;;;23.80;63.10;;;;;;8300791;28;19912;-75
2023/07/13 12:47:59;;;;;;;;;;;23.70;63.00;;;;;;8301224;28;19906;-75
2023/07/13 12:52:00;;;;;;;;;;;23.70;63.00;;;;;;8300245;28;20359;-76
2023/07/13 12:56:02;;;;;;;;;;;23.70;63.10;;;;;;8295548;28;19964;-75
2023/07/13 13:00:04;;;;;;;;;;;23.70;63.10;;;;;;8294986;28;19960;-76
2023/07/13 13:04:11;;;;;;;;;;;23.70;63.00;;;;;;8295162;28;20339;-75
2023/07/13 13:08:11;;;;;;;;;;;23.80;63.10;;;;;;8294296;28;19944;-75
2023/07/13 13:12:12;;;;;;;;;;;23.70;62.90;;;;;;8293191;28;19909;-75
2023/07/13 13:16:12;;;;;;;;;;;23.70;62.90;;;;;;8318250;28;19960;-75
2023/07/13 13:20:13;;;;;;;;;;;23.80;63.00;;;;;;8327328;28;19960;-75
2023/07/13 13:24:15;;;;;;;;;;;23.80;63.00;;;;;;8327172;28;19905;-75
2023/07/13 13:28:17;;;;;;;;;;;23.80;62.90;;;;;;8309615;28;20206;-76
2023/07/13 13:32:18;;;;;;;;;;;23.80;63.00;;;;;;8310168;28;19909;-75
2023/07/13 13:36:21;;;;;;;;;;;23.80;62.90;;;;;;8327568;28;19956;-75
2023/07/13 13:40:26;;;;;;;;;;;23.80;62.90;;;;;;8328035;28;19905;-75
2023/07/13 13:44:27;;;;;;;;;;;23.80;62.90;;;;;;8310974;28;19960;-75
2023/07/13 13:48:30;;;;;;;;;;;23.80;62.80;;;;;;8328163;28;19909;-75
2023/07/13 13:52:32;;;;;;;;;;;23.80;62.80;;;;;;8326813;28;19916;-75
2023/07/13 13:56:32;;;;;;;;;;;23.80;62.80;;;;;;8326597;28;19924;-76
2023/07/13 14:00:33;;;;;;;;;;;23.80;62.80;;;;;;8326485;28;19905;-76
2023/07/13 14:04:34;;;;;;;;;;;23.80;62.80;;;;;;8326481;28;20359;-75
2023/07/13 14:08:34;;;;;;;;;;;23.80;62.80;;;;;;8308916;28;20347;-75
2023/07/13 14:12:35;;;;;;;;;;;23.80;62.80;;;;;;8326176;28;19920;-75
2023/07/13 14:16:35;;;;;;;;;;;23.80;62.80;;;;;;8326445;28;20144;-75
2023/07/13 14:20:36;;;;;;;;;;;23.80;62.80;;;;;;8325172;28;19905;-75
2023/07/13 14:24:36;;;;;;;;;;;23.80;62.70;;;;;;8313357;28;19909;-75
2023/07/13 14:28:38;;;;;;;;;;;23.80;62.70;;;;;;8330637;28;19916;-75
2023/07/13 14:32:39;;;;;;;;;;;23.70;62.60;;;;;;8331939;28;19913;-75
2023/07/13 14:36:44;;;;;;;;;;;23.80;62.70;;;;;;8297770;28;19916;-75
2023/07/13 14:40:45;;;;;;;;;;;23.80;62.70;;;;;;8330553;28;20055;-75
2023/07/13 14:44:46;;;;;;;;;;;23.80;62.70;;;;;;8331481;28;19905;-76
2023/07/13 14:48:46;;;;;;;;;;;23.80;62.60;;;;;;8331352;28;19909;-75
2023/07/13 14:52:48;;;;;;;;;;;23.80;62.60;;;;;;8331242;28;19923;-75
2023/07/13 14:56:48;;;;;;;;;;;23.80;62.60;;;;;;8330969;28;20004;-75
2023/07/13 15:00:50;;;;;;;;;;;23.80;62.60;;;;;;8331038;28;19920;-75
2023/07/13 15:04:50;;;;;;;;;;;23.80;62.60;;;;;;8331691;28;20237;-75
2023/07/13 15:08:51;;;;;;;;;;;23.80;62.60;;;;;;8296671;28;20000;-76
2023/07/13 15:12:52;;;;;;;;;;;23.80;62.60;;;;;;8296570;28;19910;-75
2023/07/13 15:16:55;;;;;;;;;;;23.80;62.70;;;;;;8312974;28;19940;-75
2023/07/13 15:20:57;;;;;;;;;;;23.80;62.70;;;;;;8330200;28;19905;-75
2023/07/13 15:25:00;;;;;;;;;;;23.80;62.70;;;;;;8312817;28;19909;-75
2023/07/13 15:29:01;;;;;;;;;;;23.80;62.70;;;;;;8312659;28;20370;-75
2023/07/13 15:33:09;;;;;;;;;;;23.80;63.40;;;;;;8330160;28;20273;-75
2023/07/13 15:37:14;;;;;;;;;;;23.70;62.60;;;;;;8311982;28;19952;-75
2023/07/13 15:41:22;;;;;;;;;;;23.80;62.70;;;;;;8329596;28;19916;-76
2023/07/13 15:45:24;;;;;;;;;;;23.80;62.70;;;;;;8330341;28;19904;-75
2023/07/13 15:49:25;;;;;;;;;;;23.80;62.70;;;;;;8312180;28;20333;-75
2023/07/13 15:53:27;;;;;;;;;;;23.80;62.70;;;;;;8329196;28;20007;-74
2023/07/13 15:57:28;;;;;;;;;;;23.80;62.70;;;;;;8329844;28;19905;-75
2023/07/13 16:01:30;;;;;;;;;;;23.80;62.60;;;;;;8328160;28;19913;-76
2023/07/13 16:05:30;;;;;;;;;;;23.80;62.60;;;;;;8329087;28;20282;-76
2023/07/13 16:09:31;;;;;;;;;;;23.80;62.70;;;;;;8294702;28;19975;-75
2023/07/13 16:13:31;;;;;;;;;;;23.80;62.70;;;;;;8327439;28;19924;-76
2023/07/13 16:17:32;;;;;;;;;;;23.80;62.70;;;;;;8311057;28;19968;-75
2023/07/13 16:21:35;;;;;;;;;;;23.80;62.70;;;;;;8310596;28;20405;-76
2023/07/13 16:25:36;;;;;;;;;;;23.80;62.70;;;;;;8328229;28;19996;-76
2023/07/13 16:29:38;;;;;;;;;;;23.80;62.60;;;;;;8328139;28;20393;-75
2023/07/13 16:33:39;;;;;;;;;;;23.80;62.70;;;;;;8310942;28;19909;-75
2023/07/13 16:37:39;;;;;;;;;;;23.80;62.70;;;;;;8310321;28;19920;-75
2023/07/13 16:41:40;;;;;;;;;;;23.80;62.70;;;;;;8327885;28;19905;-75
2023/07/13 16:45:44;;;;;;;;;;;23.80;62.70;;;;;;8327503;28;20028;-75
2023/07/13 16:49:45;;;;;;;;;;;23.80;62.70;;;;;;8327638;28;19916;-75
2023/07/13 16:53:46;;;;;;;;;;;23.80;62.70;;;;;;8327471;28;19905;-75
2023/07/13 16:57:47;;;;;;;;;;;23.80;62.70;;;;;;8293661;28;19964;-75
2023/07/13 17:01:48;;;;;;;;;;;23.80;62.60;;;;;;8327323;28;19905;-75
2023/07/13 17:05:49;;;;;;;;;;;23.80;62.60;;;;;;8327083;28;20008;-75
2023/07/13 17:09:51;;;;;;;;;;;23.80;62.70;;;;;;8325824;28;19917;-76
2023/07/13 17:13:52;;;;;;;;;;;23.80;62.70;;;;;;8327371;28;19917;-76
2023/07/13 17:18:03;;;;;;;;;;;23.80;62.60;;;;;;8325923;28;19909;-76
2023/07/13 17:22:05;;;;;;;;;;;23.80;62.60;;;;;;8327080;28;19905;-76
2023/07/13 17:26:06;;;;;;;;;;;23.80;62.70;;;;;;8325147;28;20429;-76
2023/07/13 17:30:12;;;;;;;;;;;23.80;62.60;;;;;;8309242;28;20286;-76
2023/07/13 17:34:17;;;;;;;;;;;23.80;62.60;;;;;;8327169;28;19909;-76
2023/07/13 17:38:19;;;;;;;;;;;23.70;62.60;;;;;;8309158;28;20362;-76
2023/07/13 17:42:20;;;;;;;;;;;23.80;62.60;;;;;;8326039;28;20380;-76
2023/07/13 17:46:26;;;;;;;;;;;23.80;62.60;;;;;;8326970;28;19913;-76
2023/07/13 17:50:48;;;;;;;;;;;23.80;62.70;;;;;;8308955;28;19924;-76
2023/07/13 17:54:50;;;;;;;;;;;23.70;62.60;;;;;;8326738;28;20362;-76
2023/07/13 17:58:51;;;;;;;;;;;23.70;62.70;;;;;;8312710;28;19909;-76
2023/07/13 18:02:51;;;;;;;;;;;23.70;62.70;;;;;;8298701;28;19911;-76
2023/07/13 18:07:08;;;;;;;;;;;23.70;62.60;;;;;;8332840;28;19909;-76
2023/07/13 18:11:08;;;;;;;;;;;23.70;62.60;;;;;;8317107;28;19913;-76
2023/07/13 18:15:09;;;;;;;;;;;23.80;62.70;;;;;;8331004;28;19921;-76
2023/07/13 18:19:19;;;;;;;;;;;23.80;62.70;;;;;;8331232;28;19940;-76
2023/07/13 18:23:20;;;;;;;;;;;23.70;62.60;;;;;;8332195;28;20379;-76
2023/07/13 18:27:21;;;;;;;;;;;23.80;62.70;;;;;;8282458;28;19980;-76
2023/07/13 18:31:23;;;;;;;;;;;23.80;62.60;;;;;;8299322;28;19916;-76
2023/07/13 18:35:27;;;;;;;;;;;23.80;62.60;;;;;;8299106;28;19909;-76
2023/07/13 18:39:28;;;;;;;;;;;23.80;62.70;;;;;;8298097;28;19959;-76
2023/07/13 18:43:28;;;;;;;;;;;23.70;62.60;;;;;;8299023;28;19909;-75
2023/07/13 18:47:34;;;;;;;;;;;23.70;62.60;;;;;;8281120;28;20000;-76
2023/07/13 18:51:35;;;;;;;;;;;23.80;62.70;;;;;;8281977;28;19936;-76
2023/07/13 18:55:36;;;;;;;;;;;23.80;62.60;;;;;;8308457;28;19909;-76
2023/07/13 18:59:37;;;;;;;;;;;23.80;62.70;;;;;;8331198;28;19947;-75
2023/07/13 19:03:37;;;;;;;;;;;23.70;62.60;;;;;;8297739;28;19909;-76
2023/07/13 19:07:38;;;;;;;;;;;23.70;62.60;;;;;;8312605;28;19920;-76
2023/07/13 19:11:38;;;;;;;;;;;23.70;62.70;;;;;;8331203;28;19920;-75
2023/07/13 19:15:39;;;;;;;;;;;23.70;62.70;;;;;;8294345;28;19973;-75
2023/07/13 19:19:39;;;;;;;;;;;23.70;62.70;;;;;;8297686;28;19920;-76
2023/07/13 19:23:42;;;;;;;;;;;23.70;62.70;;;;;;8297917;28;19909;-76
2023/07/13 19:27:43;;;;;;;;;;;23.70;63.40;;;;;;8297940;28;19912;-76
2023/07/13 19:31:45;;;;;;;;;;;23.70;62.70;;;;;;8297801;28;20015;-76
2023/07/13 19:35:45;;;;;;;;;;;23.70;62.70;;;;;;8297300;28;19910;-76
2023/07/13 19:39:47;;;;;;;;;;;23.70;62.70;;;;;;8297369;28;19920;-76
2023/07/13 19:43:48;;;;;;;;;;;23.80;62.70;;;;;;8296036;28;19909;-76
2023/07/13 19:47:49;;;;;;;;;;;23.70;62.60;;;;;;8297218;28;19905;-76
2023/07/13 19:51:50;;;;;;;;;;;23.70;62.60;;;;;;8297080;28;19920;-76
2023/07/13 19:55:51;;;;;;;;;;;23.70;62.70;;;;;;8279352;28;20363;-75
2023/07/13 19:59:53;;;;;;;;;;;23.70;62.70;;;;;;8297338;28;19909;-76
2023/07/13 20:03:54;;;;;;;;;;;23.70;62.70;;;;;;8280611;28;19906;-76
2023/07/13 20:07:56;;;;;;;;;;;23.70;62.70;;;;;;8297801;28;19912;-75
2023/07/13 20:11:57;;;;;;;;;;;23.70;62.70;;;;;;8280012;28;19948;-76
2023/07/13 20:15:57;;;;;;;;;;;23.80;62.70;;;;;;8318574;28;19921;-76
2023/07/13 20:19:59;;;;;;;;;;;23.70;62.70;;;;;;8329071;28;20240;-76
2023/07/13 20:24:00;;;;;;;;;;;23.70;62.70;;;;;;8312219;28;19963;-75
2023/07/13 20:28:06;;;;;;;;;;;23.70;62.80;;;;;;8329790;28;19939;-76
2023/07/13 20:32:08;;;;;;;;;;;23.70;62.70;;;;;;8312918;28;19913;-76
2023/07/13 20:36:11;;;;;;;;;;;23.70;62.70;;;;;;8311938;28;19995;-76
2023/07/13 20:40:13;;;;;;;;;;;23.70;62.70;;;;;;8314499;28;19911;-75
2023/07/13 20:44:13;;;;;;;;;;;23.70;62.80;;;;;;8315388;28;19928;-76
2023/07/13 20:48:17;;;;;;;;;;;23.70;62.70;;;;;;8332736;28;20524;-75
2023/07/13 20:52:18;;;;;;;;;;;23.70;62.70;;;;;;8333125;28;19909;-75
2023/07/13 20:56:18;;;;;;;;;;;23.70;62.70;;;;;;8327945;28;20012;-75
2023/07/13 21:00:21;;;;;;;;;;;23.70;62.70;;;;;;8309699;28;20011;-76
2023/07/13 21:04:21;;;;;;;;;;;23.70;62.70;;;;;;8309594;28;19905;-76
2023/07/13 21:08:26;;;;;;;;;;;23.70;62.70;;;;;;8327233;28;19932;-76
2023/07/13 21:12:27;;;;;;;;;;;23.70;62.70;;;;;;8327215;28;19908;-76
2023/07/13 21:16:29;;;;;;;;;;;23.70;62.60;;;;;;8327355;28;19917;-76
2023/07/13 21:20:32;;;;;;;;;;;23.70;62.60;;;;;;8326823;28;19920;-76
2023/07/13 21:24:32;;;;;;;;;;;23.70;62.60;;;;;;8327151;28;19956;-76
2023/07/13 21:28:34;;;;;;;;;;;23.70;62.60;;;;;;8309187;28;20363;-75
2023/07/13 21:32:35;;;;;;;;;;;23.70;62.60;;;;;;8331155;28;19963;-76
2023/07/13 21:36:36;;;;;;;;;;;23.70;62.70;;;;;;8334980;28;20351;-76
2023/07/13 21:40:37;;;;;;;;;;;23.70;62.70;;;;;;8334422;28;20429;-76
2023/07/13 21:44:38;;;;;;;;;;;23.70;62.70;;;;;;8334480;28;19920;-76
2023/07/13 21:48:38;;;;;;;;;;;23.70;62.70;;;;;;8316170;28;19909;-75
2023/07/13 21:52:39;;;;;;;;;;;23.70;62.70;;;;;;8315585;28;20113;-75
2023/07/13 21:56:39;;;;;;;;;;;23.70;62.70;;;;;;8297201;28;20290;-76
2023/07/13 22:00:40;;;;;;;;;;;23.70;62.70;;;;;;8300138;28;19909;-75
2023/07/13 22:04:41;;;;;;;;;;;23.70;62.60;;;;;;8266107;28;20359;-76
2023/07/13 22:08:41;;;;;;;;;;;23.70;62.60;;;;;;8299830;28;19913;-75
2023/07/13 22:12:42;;;;;;;;;;;23.70;62.60;;;;;;8298422;28;19913;-75
2023/07/13 22:16:43;;;;;;;;;;;23.70;62.60;;;;;;8299444;28;19924;-75
2023/07/13 22:20:43;;;;;;;;;;;23.70;62.60;;;;;;8299532;28;19905;-76
2023/07/13 22:24:44;;;;;;;;;;;23.70;62.60;;;;;;8302226;28;19952;-75
2023/07/13 22:28:45;;;;;;;;;;;23.70;62.60;;;;;;8314022;28;19916;-76
2023/07/13 22:32:45;;;;;;;;;;;23.70;62.60;;;;;;8330541;28;19924;-76
2023/07/13 22:36:46;;;;;;;;;;;23.70;62.50;;;;;;8330324;28;19915;-76
2023/07/13 22:40:47;;;;;;;;;;;23.70;62.50;;;;;;8331584;28;19912;-75
2023/07/13 22:44:47;;;;;;;;;;;23.70;62.50;;;;;;8330755;28;20374;-76
2023/07/13 22:48:56;;;;;;;;;;;23.70;62.50;;;;;;8331767;28;19909;-76
2023/07/13 22:52:56;;;;;;;;;;;23.70;62.60;;;;;;8331007;28;20358;-76
2023/07/13 22:56:57;;;;;;;;;;;23.70;62.60;;;;;;8297444;28;20035;-76
2023/07/13 23:00:58;;;;;;;;;;;23.70;62.60;;;;;;8313091;28;19904;-76
2023/07/13 23:05:04;;;;;;;;;;;23.70;62.60;;;;;;8297210;28;19916;-76
2023/07/13 23:09:08;;;;;;;;;;;23.70;62.60;;;;;;8330725;28;19917;-76
2023/07/13 23:13:09;;;;;;;;;;;23.70;62.50;;;;;;8296616;28;19912;-77
2023/07/13 23:17:11;;;;;;;;;;;23.70;62.50;;;;;;8330408;28;19936;-74
2023/07/13 23:21:12;;;;;;;;;;;23.70;62.50;;;;;;8330419;28;20004;-76
2023/07/13 23:25:15;;;;;;;;;;;23.70;62.50;;;;;;8330433;28;19912;-76